sensor_id;sensor_type;location;lat;lon;timestamp;temperature;humidity
78536;SHT31;67829;51.968;5.684;2024-03-06T00:02:11;9.4;70.8
78536;SHT31;67829;51.968;5.684;2024-03-06T00:04:41;9.3;70.2
78536;SHT31;67829;51.968;5.684;2024-03-06T00:07:10;9.3;69.8
78536;SHT31;67829;51.968;5.684;2024-03-06T00:09:39;9.3;70.3
78536;SHT31;67829;51.968;5.684;2024-03-06T00:12:09;9.2;70.2
78536;SHT31;67829;51.968;5.684;2024-03-06T00:14:38;9.2;69.9
78536;SHT31;67829;51.968;5.684;2024-03-06T00:17:08;9.2;69.8
78536;SHT31;67829;51.968;5.684;2024-03-06T00:19:36;9.1;70.1
78536;SHT31;67829;51.968;5.684;2024-03-06T00:22:07;9.1;70.6
78536;SHT31;67829;51.968;5.684;2024-03-06T00:24:36;9.1;70.3
78536;SHT31;67829;51.968;5.684;2024-03-06T00:27:06;9.0;70.4
78536;SHT31;67829;51.968;5.684;2024-03-06T00:29:36;9.0;70.7
78536;SHT31;67829;51.968;5.684;2024-03-06T00:32:05;9.0;70.4
78536;SHT31;67829;51.968;5.684;2024-03-06T00:34:34;9.0;70.2
78536;SHT31;67829;51.968;5.684;2024-03-06T00:37:03;8.9;70.4
78536;SHT31;67829;51.968;5.684;2024-03-06T00:39:32;8.9;70.5
78536;SHT31;67829;51.968;5.684;2024-03-06T00:42:00;8.9;70.9
78536;SHT31;67829;51.968;5.684;2024-03-06T00:44:29;8.9;71.3
78536;SHT31;67829;51.968;5.684;2024-03-06T00:46:57;8.8;71.4
78536;SHT31;67829;51.968;5.684;2024-03-06T00:49:26;8.8;71.5
78536;SHT31;67829;51.968;5.684;2024-03-06T00:51:54;8.8;71.4
78536;SHT31;67829;51.968;5.684;2024-03-06T00:54:23;8.8;71.5
78536;SHT31;67829;51.968;5.684;2024-03-06T00:56:51;8.8;71.4
78536;SHT31;67829;51.968;5.684;2024-03-06T00:59:20;8.7;71.0
78536;SHT31;67829;51.968;5.684;2024-03-06T01:01:49;8.7;71.1
78536;SHT31;67829;51.968;5.684;2024-03-06T01:04:18;8.7;71.1
78536;SHT31;67829;51.968;5.684;2024-03-06T01:06:48;8.7;70.9
78536;SHT31;67829;51.968;5.684;2024-03-06T01:09:18;8.7;71.0
78536;SHT31;67829;51.968;5.684;2024-03-06T01:11:47;8.7;70.9
78536;SHT31;67829;51.968;5.684;2024-03-06T01:14:16;8.7;70.8
78536;SHT31;67829;51.968;5.684;2024-03-06T01:16:46;8.6;70.9
78536;SHT31;67829;51.968;5.684;2024-03-06T01:19:15;8.6;71.5
78536;SHT31;67829;51.968;5.684;2024-03-06T01:21:43;8.6;71.7
78536;SHT31;67829;51.968;5.684;2024-03-06T01:24:12;8.6;71.7
78536;SHT31;67829;51.968;5.684;2024-03-06T01:26:40;8.6;71.6
78536;SHT31;67829;51.968;5.684;2024-03-06T01:29:09;8.6;71.7
78536;SHT31;67829;51.968;5.684;2024-03-06T01:31:37;8.6;71.9
78536;SHT31;67829;51.968;5.684;2024-03-06T01:34:06;8.6;72.4
78536;SHT31;67829;51.968;5.684;2024-03-06T01:36:35;8.5;72.7
78536;SHT31;67829;51.968;5.684;2024-03-06T01:39:03;8.5;72.3
78536;SHT31;67829;51.968;5.684;2024-03-06T01:41:33;8.5;71.9
78536;SHT31;67829;51.968;5.684;2024-03-06T01:44:01;8.5;72.4
78536;SHT31;67829;51.968;5.684;2024-03-06T01:46:30;8.5;72.9
78536;SHT31;67829;51.968;5.684;2024-03-06T01:48:59;8.5;72.7
78536;SHT31;67829;51.968;5.684;2024-03-06T01:51:29;8.5;72.7
78536;SHT31;67829;51.968;5.684;2024-03-06T01:54:01;8.4;72.8
78536;SHT31;67829;51.968;5.684;2024-03-06T01:56:34;8.4;73.0
78536;SHT31;67829;51.968;5.684;2024-03-06T01:59:04;8.4;72.9
78536;SHT31;67829;51.968;5.684;2024-03-06T02:01:33;8.4;72.9
78536;SHT31;67829;51.968;5.684;2024-03-06T02:04:02;8.4;72.7
78536;SHT31;67829;51.968;5.684;2024-03-06T02:06:31;8.4;72.8
78536;SHT31;67829;51.968;5.684;2024-03-06T02:09:01;8.4;73.0
78536;SHT31;67829;51.968;5.684;2024-03-06T02:11:29;8.4;73.0
78536;SHT31;67829;51.968;5.684;2024-03-06T02:13:59;8.4;73.3
78536;SHT31;67829;51.968;5.684;2024-03-06T02:16:27;8.4;72.8
78536;SHT31;67829;51.968;5.684;2024-03-06T02:18:57;8.4;72.1
78536;SHT31;67829;51.968;5.684;2024-03-06T02:21:26;8.4;72.7
78536;SHT31;67829;51.968;5.684;2024-03-06T02:23:55;8.4;73.0
78536;SHT31;67829;51.968;5.684;2024-03-06T02:26:24;8.4;73.0
78536;SHT31;67829;51.968;5.684;2024-03-06T02:28:54;8.4;73.0
78536;SHT31;67829;51.968;5.684;2024-03-06T02:31:25;8.4;72.8
78536;SHT31;67829;51.968;5.684;2024-03-06T02:33:54;8.4;72.7
78536;SHT31;67829;51.968;5.684;2024-03-06T02:36:22;8.4;73.0
78536;SHT31;67829;51.968;5.684;2024-03-06T02:38:50;8.4;73.3
78536;SHT31;67829;51.968;5.684;2024-03-06T02:41:19;8.3;73.6
78536;SHT31;67829;51.968;5.684;2024-03-06T02:43:50;8.3;73.7
78536;SHT31;67829;51.968;5.684;2024-03-06T02:46:18;8.3;73.4
78536;SHT31;67829;51.968;5.684;2024-03-06T02:48:47;8.3;73.5
78536;SHT31;67829;51.968;5.684;2024-03-06T02:51:19;8.3;73.7
78536;SHT31;67829;51.968;5.684;2024-03-06T02:53:48;8.3;73.4
78536;SHT31;67829;51.968;5.684;2024-03-06T02:56:19;8.3;73.6
78536;SHT31;67829;51.968;5.684;2024-03-06T02:58:48;8.3;74.0
78536;SHT31;67829;51.968;5.684;2024-03-06T03:01:17;8.3;74.4
78536;SHT31;67829;51.968;5.684;2024-03-06T03:03:45;8.3;74.7
78536;SHT31;67829;51.968;5.684;2024-03-06T03:06:15;8.3;75.0
78536;SHT31;67829;51.968;5.684;2024-03-06T03:08:43;8.3;75.1
78536;SHT31;67829;51.968;5.684;2024-03-06T03:11:12;8.3;75.3
78536;SHT31;67829;51.968;5.684;2024-03-06T03:13:42;8.3;75.3
78536;SHT31;67829;51.968;5.684;2024-03-06T03:16:17;8.2;75.3
78536;SHT31;67829;51.968;5.684;2024-03-06T03:18:47;8.3;75.4
78536;SHT31;67829;51.968;5.684;2024-03-06T03:21:18;8.3;75.1
78536;SHT31;67829;51.968;5.684;2024-03-06T03:23:47;8.2;74.8
78536;SHT31;67829;51.968;5.684;2024-03-06T03:26:16;8.2;74.3
78536;SHT31;67829;51.968;5.684;2024-03-06T03:28:46;8.2;74.0
78536;SHT31;67829;51.968;5.684;2024-03-06T03:31:17;8.2;74.2
78536;SHT31;67829;51.968;5.684;2024-03-06T03:33:45;8.2;74.5
78536;SHT31;67829;51.968;5.684;2024-03-06T03:36:15;8.2;74.1
78536;SHT31;67829;51.968;5.684;2024-03-06T03:38:43;8.2;74.0
78536;SHT31;67829;51.968;5.684;2024-03-06T03:41:12;8.2;74.1
78536;SHT31;67829;51.968;5.684;2024-03-06T03:43:42;8.2;74.0
78536;SHT31;67829;51.968;5.684;2024-03-06T03:46:11;8.1;74.1
78536;SHT31;67829;51.968;5.684;2024-03-06T03:48:40;8.1;74.4
78536;SHT31;67829;51.968;5.684;2024-03-06T03:51:09;8.1;74.6
78536;SHT31;67829;51.968;5.684;2024-03-06T03:53:38;8.1;74.4
78536;SHT31;67829;51.968;5.684;2024-03-06T03:56:07;8.1;74.5
78536;SHT31;67829;51.968;5.684;2024-03-06T03:58:37;8.1;74.5
78536;SHT31;67829;51.968;5.684;2024-03-06T04:01:06;8.1;74.4
78536;SHT31;67829;51.968;5.684;2024-03-06T04:03:34;8.1;74.1
78536;SHT31;67829;51.968;5.684;2024-03-06T04:06:05;8.1;74.1
78536;SHT31;67829;51.968;5.684;2024-03-06T04:08:34;8.1;74.0
78536;SHT31;67829;51.968;5.684;2024-03-06T04:11:04;8.1;73.8
78536;SHT31;67829;51.968;5.684;2024-03-06T04:13:35;8.1;73.8
78536;SHT31;67829;51.968;5.684;2024-03-06T04:16:05;8.1;73.7
78536;SHT31;67829;51.968;5.684;2024-03-06T04:18:34;8.0;73.1
78536;SHT31;67829;51.968;5.684;2024-03-06T04:21:04;8.0;73.0
78536;SHT31;67829;51.968;5.684;2024-03-06T04:23:33;8.0;72.9
78536;SHT31;67829;51.968;5.684;2024-03-06T04:26:02;8.0;73.1
78536;SHT31;67829;51.968;5.684;2024-03-06T04:28:34;8.0;73.2
78536;SHT31;67829;51.968;5.684;2024-03-06T04:31:02;8.0;73.2
78536;SHT31;67829;51.968;5.684;2024-03-06T04:33:31;7.9;73.5
78536;SHT31;67829;51.968;5.684;2024-03-06T04:36:02;7.9;73.7
78536;SHT31;67829;51.968;5.684;2024-03-06T04:38:32;7.9;73.9
78536;SHT31;67829;51.968;5.684;2024-03-06T04:41:00;7.9;73.7
78536;SHT31;67829;51.968;5.684;2024-03-06T04:43:29;7.9;73.3
78536;SHT31;67829;51.968;5.684;2024-03-06T04:45:57;7.9;73.5
78536;SHT31;67829;51.968;5.684;2024-03-06T04:48:26;7.9;73.5
78536;SHT31;67829;51.968;5.684;2024-03-06T04:50:54;7.8;73.4
78536;SHT31;67829;51.968;5.684;2024-03-06T04:53:24;7.8;73.5
78536;SHT31;67829;51.968;5.684;2024-03-06T04:55:52;7.8;73.7
78536;SHT31;67829;51.968;5.684;2024-03-06T04:58:21;7.8;73.8
78536;SHT31;67829;51.968;5.684;2024-03-06T05:00:49;7.8;73.9
78536;SHT31;67829;51.968;5.684;2024-03-06T05:03:18;7.8;73.9
78536;SHT31;67829;51.968;5.684;2024-03-06T05:05:47;7.8;74.1
78536;SHT31;67829;51.968;5.684;2024-03-06T05:08:17;7.8;74.4
78536;SHT31;67829;51.968;5.684;2024-03-06T05:10:46;7.8;74.6
78536;SHT31;67829;51.968;5.684;2024-03-06T05:13:15;7.8;74.5
78536;SHT31;67829;51.968;5.684;2024-03-06T05:15:44;7.7;74.6
78536;SHT31;67829;51.968;5.684;2024-03-06T05:18:12;7.7;74.6
78536;SHT31;67829;51.968;5.684;2024-03-06T05:20:41;7.7;74.7
78536;SHT31;67829;51.968;5.684;2024-03-06T05:23:09;7.7;74.9
78536;SHT31;67829;51.968;5.684;2024-03-06T05:25:39;7.7;74.9
78536;SHT31;67829;51.968;5.684;2024-03-06T05:28:07;7.7;75.0
78536;SHT31;67829;51.968;5.684;2024-03-06T05:30:38;7.7;74.9
78536;SHT31;67829;51.968;5.684;2024-03-06T05:33:06;7.7;75.1
78536;SHT31;67829;51.968;5.684;2024-03-06T05:35:35;7.7;75.3
78536;SHT31;67829;51.968;5.684;2024-03-06T05:38:03;7.6;75.4
78536;SHT31;67829;51.968;5.684;2024-03-06T05:40:33;7.6;75.4
78536;SHT31;67829;51.968;5.684;2024-03-06T05:43:04;7.6;75.6
78536;SHT31;67829;51.968;5.684;2024-03-06T05:45:32;7.6;75.7
78536;SHT31;67829;51.968;5.684;2024-03-06T05:48:01;7.6;75.9
78536;SHT31;67829;51.968;5.684;2024-03-06T05:50:32;7.6;75.8
78536;SHT31;67829;51.968;5.684;2024-03-06T05:53:00;7.6;75.9
78536;SHT31;67829;51.968;5.684;2024-03-06T05:55:29;7.6;75.9
78536;SHT31;67829;51.968;5.684;2024-03-06T05:57:57;7.6;75.8
78536;SHT31;67829;51.968;5.684;2024-03-06T06:00:27;7.6;75.8
78536;SHT31;67829;51.968;5.684;2024-03-06T06:02:55;7.6;76.2
78536;SHT31;67829;51.968;5.684;2024-03-06T06:05:23;7.6;76.3
78536;SHT31;67829;51.968;5.684;2024-03-06T06:07:52;7.6;76.5
78536;SHT31;67829;51.968;5.684;2024-03-06T06:10:21;7.5;76.7
78536;SHT31;67829;51.968;5.684;2024-03-06T06:12:50;7.5;76.8
78536;SHT31;67829;51.968;5.684;2024-03-06T06:15:20;7.5;76.9
78536;SHT31;67829;51.968;5.684;2024-03-06T06:17:51;7.5;76.9
78536;SHT31;67829;51.968;5.684;2024-03-06T06:20:20;7.5;77.1
78536;SHT31;67829;51.968;5.684;2024-03-06T06:22:48;7.5;77.2
78536;SHT31;67829;51.968;5.684;2024-03-06T06:25:17;7.5;77.3
78536;SHT31;67829;51.968;5.684;2024-03-06T06:27:47;7.5;77.5
78536;SHT31;67829;51.968;5.684;2024-03-06T06:30:16;7.6;77.4
78536;SHT31;67829;51.968;5.684;2024-03-06T06:32:47;7.6;77.4
78536;SHT31;67829;51.968;5.684;2024-03-06T06:35:15;7.6;77.3
78536;SHT31;67829;51.968;5.684;2024-03-06T06:37:44;7.6;77.3
78536;SHT31;67829;51.968;5.684;2024-03-06T06:40:13;7.6;77.3
78536;SHT31;67829;51.968;5.684;2024-03-06T06:42:46;7.6;77.2
78536;SHT31;67829;51.968;5.684;2024-03-06T06:45:16;7.6;77.2
78536;SHT31;67829;51.968;5.684;2024-03-06T06:47:47;7.6;77.2
78536;SHT31;67829;51.968;5.684;2024-03-06T06:50:16;7.6;77.1
78536;SHT31;67829;51.968;5.684;2024-03-06T06:52:45;7.6;77.0
78536;SHT31;67829;51.968;5.684;2024-03-06T06:55:13;7.6;76.9
78536;SHT31;67829;51.968;5.684;2024-03-06T06:57:42;7.7;76.8
78536;SHT31;67829;51.968;5.684;2024-03-06T07:00:11;7.7;76.6
78536;SHT31;67829;51.968;5.684;2024-03-06T07:02:43;7.7;76.2
78536;SHT31;67829;51.968;5.684;2024-03-06T07:05:12;7.7;75.7
78536;SHT31;67829;51.968;5.684;2024-03-06T07:07:41;7.7;75.3
78536;SHT31;67829;51.968;5.684;2024-03-06T07:10:10;7.7;74.7
78536;SHT31;67829;51.968;5.684;2024-03-06T07:12:39;7.7;74.2
78536;SHT31;67829;51.968;5.684;2024-03-06T07:15:07;7.7;73.8
78536;SHT31;67829;51.968;5.684;2024-03-06T07:17:36;7.7;73.3
78536;SHT31;67829;51.968;5.684;2024-03-06T07:20:05;7.7;73.1
78536;SHT31;67829;51.968;5.684;2024-03-06T07:22:35;7.6;72.9
78536;SHT31;67829;51.968;5.684;2024-03-06T07:25:04;7.6;73.3
78536;SHT31;67829;51.968;5.684;2024-03-06T07:27:35;7.6;72.9
78536;SHT31;67829;51.968;5.684;2024-03-06T07:30:03;7.6;73.4
78536;SHT31;67829;51.968;5.684;2024-03-06T07:32:33;7.6;73.4
78536;SHT31;67829;51.968;5.684;2024-03-06T07:35:02;7.6;73.2
78536;SHT31;67829;51.968;5.684;2024-03-06T07:37:31;7.6;73.0
78536;SHT31;67829;51.968;5.684;2024-03-06T07:40:00;7.5;73.3
78536;SHT31;67829;51.968;5.684;2024-03-06T07:42:31;7.5;73.3
78536;SHT31;67829;51.968;5.684;2024-03-06T07:45:01;7.5;73.4
78536;SHT31;67829;51.968;5.684;2024-03-06T07:47:30;7.6;73.3
78536;SHT31;67829;51.968;5.684;2024-03-06T07:49:59;7.6;73.2
78536;SHT31;67829;51.968;5.684;2024-03-06T07:52:28;7.6;73.5
78536;SHT31;67829;51.968;5.684;2024-03-06T07:54:58;7.6;73.6
78536;SHT31;67829;51.968;5.684;2024-03-06T07:57:27;7.6;73.7
78536;SHT31;67829;51.968;5.684;2024-03-06T07:59:55;7.6;73.6
78536;SHT31;67829;51.968;5.684;2024-03-06T08:02:23;7.6;74.2
78536;SHT31;67829;51.968;5.684;2024-03-06T08:04:52;7.6;74.4
78536;SHT31;67829;51.968;5.684;2024-03-06T08:07:20;7.7;74.3
78536;SHT31;67829;51.968;5.684;2024-03-06T08:09:49;7.7;74.3
78536;SHT31;67829;51.968;5.684;2024-03-06T08:12:17;7.7;74.4
78536;SHT31;67829;51.968;5.684;2024-03-06T08:14:48;7.8;74.4
78536;SHT31;67829;51.968;5.684;2024-03-06T08:17:16;7.8;74.2
78536;SHT31;67829;51.968;5.684;2024-03-06T08:19:45;7.8;74.6
78536;SHT31;67829;51.968;5.684;2024-03-06T08:22:13;7.9;74.7
78536;SHT31;67829;51.968;5.684;2024-03-06T08:24:43;7.9;74.4
78536;SHT31;67829;51.968;5.684;2024-03-06T08:27:11;7.9;74.4
78536;SHT31;67829;51.968;5.684;2024-03-06T08:29:40;8.0;74.9
78536;SHT31;67829;51.968;5.684;2024-03-06T08:32:09;8.0;75.2
78536;SHT31;67829;51.968;5.684;2024-03-06T08:34:37;8.1;74.8
78536;SHT31;67829;51.968;5.684;2024-03-06T08:37:06;8.1;75.4
78536;SHT31;67829;51.968;5.684;2024-03-06T08:39:35;8.2;75.8
78536;SHT31;67829;51.968;5.684;2024-03-06T08:42:04;8.2;75.5
78536;SHT31;67829;51.968;5.684;2024-03-06T08:44:33;8.3;75.4
78536;SHT31;67829;51.968;5.684;2024-03-06T08:47:01;8.3;75.2
78536;SHT31;67829;51.968;5.684;2024-03-06T08:49:30;8.4;75.2
78536;SHT31;67829;51.968;5.684;2024-03-06T08:51:58;8.4;75.3
78536;SHT31;67829;51.968;5.684;2024-03-06T08:54:26;8.5;75.3
78536;SHT31;67829;51.968;5.684;2024-03-06T08:56:57;8.5;75.4
78536;SHT31;67829;51.968;5.684;2024-03-06T08:59:26;8.6;75.2
78536;SHT31;67829;51.968;5.684;2024-03-06T09:01:55;8.6;75.2
78536;SHT31;67829;51.968;5.684;2024-03-06T09:04:24;8.6;75.1
78536;SHT31;67829;51.968;5.684;2024-03-06T09:06:52;8.7;74.9
78536;SHT31;67829;51.968;5.684;2024-03-06T09:09:21;8.7;75.1
78536;SHT31;67829;51.968;5.684;2024-03-06T09:11:49;8.8;75.4
78536;SHT31;67829;51.968;5.684;2024-03-06T09:14:18;8.8;75.1
78536;SHT31;67829;51.968;5.684;2024-03-06T09:16:46;8.9;74.9
78536;SHT31;67829;51.968;5.684;2024-03-06T09:19:15;8.9;74.9
78536;SHT31;67829;51.968;5.684;2024-03-06T09:21:43;9.0;74.9
78536;SHT31;67829;51.968;5.684;2024-03-06T09:24:12;9.0;74.7
78536;SHT31;67829;51.968;5.684;2024-03-06T09:26:43;9.1;74.5
78536;SHT31;67829;51.968;5.684;2024-03-06T09:29:11;9.1;74.6
78536;SHT31;67829;51.968;5.684;2024-03-06T09:31:40;9.1;74.5
78536;SHT31;67829;51.968;5.684;2024-03-06T09:34:10;9.2;75.1
78536;SHT31;67829;51.968;5.684;2024-03-06T09:36:41;9.2;74.8
78536;SHT31;67829;51.968;5.684;2024-03-06T09:39:14;9.3;74.8
78536;SHT31;67829;51.968;5.684;2024-03-06T09:41:46;9.3;74.3
78536;SHT31;67829;51.968;5.684;2024-03-06T09:44:15;9.4;74.6
78536;SHT31;67829;51.968;5.684;2024-03-06T09:46:45;9.4;74.4
78536;SHT31;67829;51.968;5.684;2024-03-06T09:49:18;9.4;74.3
78536;SHT31;67829;51.968;5.684;2024-03-06T09:51:48;9.5;74.7
78536;SHT31;67829;51.968;5.684;2024-03-06T09:54:19;9.5;74.3
78536;SHT31;67829;51.968;5.684;2024-03-06T09:56:48;9.6;74.8
78536;SHT31;67829;51.968;5.684;2024-03-06T09:59:16;9.6;75.5
78536;SHT31;67829;51.968;5.684;2024-03-06T10:01:49;9.7;74.8
78536;SHT31;67829;51.968;5.684;2024-03-06T10:04:22;9.8;74.2
78536;SHT31;67829;51.968;5.684;2024-03-06T10:06:53;9.8;74.2
78536;SHT31;67829;51.968;5.684;2024-03-06T10:09:26;9.9;74.9
78536;SHT31;67829;51.968;5.684;2024-03-06T10:11:55;9.9;75.0
78536;SHT31;67829;51.968;5.684;2024-03-06T10:14:24;10.0;75.0
78536;SHT31;67829;51.968;5.684;2024-03-06T10:16:57;10.0;75.2
78536;SHT31;67829;51.968;5.684;2024-03-06T10:19:27;10.1;74.7
78536;SHT31;67829;51.968;5.684;2024-03-06T10:21:57;10.2;74.1
78536;SHT31;67829;51.968;5.684;2024-03-06T10:24:27;10.2;73.1
78536;SHT31;67829;51.968;5.684;2024-03-06T10:26:57;10.3;72.8
78536;SHT31;67829;51.968;5.684;2024-03-06T10:29:29;10.3;72.9
78536;SHT31;67829;51.968;5.684;2024-03-06T10:31:58;10.4;72.2
78536;SHT31;67829;51.968;5.684;2024-03-06T10:34:28;10.4;72.3
78536;SHT31;67829;51.968;5.684;2024-03-06T10:36:58;10.4;72.9
78536;SHT31;67829;51.968;5.684;2024-03-06T10:39:27;10.4;72.1
78536;SHT31;67829;51.968;5.684;2024-03-06T10:41:58;10.5;72.4
78536;SHT31;67829;51.968;5.684;2024-03-06T10:44:27;10.5;72.1
78536;SHT31;67829;51.968;5.684;2024-03-06T10:46:59;10.5;72.0
78536;SHT31;67829;51.968;5.684;2024-03-06T10:49:29;10.6;71.5
78536;SHT31;67829;51.968;5.684;2024-03-06T10:52:00;10.6;71.4
78536;SHT31;67829;51.968;5.684;2024-03-06T10:54:33;10.6;71.3
78536;SHT31;67829;51.968;5.684;2024-03-06T10:57:05;10.6;72.2
78536;SHT31;67829;51.968;5.684;2024-03-06T10:59:35;10.6;72.7
78536;SHT31;67829;51.968;5.684;2024-03-06T11:02:04;10.7;72.1
78536;SHT31;67829;51.968;5.684;2024-03-06T11:04:35;10.7;72.1
78536;SHT31;67829;51.968;5.684;2024-03-06T11:07:06;10.8;72.1
78536;SHT31;67829;51.968;5.684;2024-03-06T11:09:37;10.8;71.0
78536;SHT31;67829;51.968;5.684;2024-03-06T11:12:07;10.8;71.0
78536;SHT31;67829;51.968;5.684;2024-03-06T11:14:38;10.9;70.7
78536;SHT31;67829;51.968;5.684;2024-03-06T11:17:09;10.9;71.4
78536;SHT31;67829;51.968;5.684;2024-03-06T11:20:14;10.9;72.2
78536;SHT31;67829;51.968;5.684;2024-03-06T11:23:03;11.0;71.3
78536;SHT31;67829;51.968;5.684;2024-03-06T11:26:03;11.1;69.7
78536;SHT31;67829;51.968;5.684;2024-03-06T11:28:34;11.1;70.5
78536;SHT31;67829;51.968;5.684;2024-03-06T11:31:05;11.1;70.4
78536;SHT31;67829;51.968;5.684;2024-03-06T11:33:39;11.2;68.8
78536;SHT31;67829;51.968;5.684;2024-03-06T11:36:19;11.2;69.3
78536;SHT31;67829;51.968;5.684;2024-03-06T11:38:56;11.2;69.9
78536;SHT31;67829;51.968;5.684;2024-03-06T11:41:27;11.2;70.4
78536;SHT31;67829;51.968;5.684;2024-03-06T11:43:59;11.3;70.2
78536;SHT31;67829;51.968;5.684;2024-03-06T11:46:42;11.3;70.3
78536;SHT31;67829;51.968;5.684;2024-03-06T11:49:17;11.4;69.9
78536;SHT31;67829;51.968;5.684;2024-03-06T11:51:47;11.4;68.7
78536;SHT31;67829;51.968;5.684;2024-03-06T11:54:16;11.4;69.3
78536;SHT31;67829;51.968;5.684;2024-03-06T11:56:51;11.5;68.4
78536;SHT31;67829;51.968;5.684;2024-03-06T11:59:22;11.5;68.6
78536;SHT31;67829;51.968;5.684;2024-03-06T12:01:52;11.5;68.2
78536;SHT31;67829;51.968;5.684;2024-03-06T12:04:22;11.5;67.6
78536;SHT31;67829;51.968;5.684;2024-03-06T12:06:51;11.5;67.7
78536;SHT31;67829;51.968;5.684;2024-03-06T12:09:19;11.5;68.5
78536;SHT31;67829;51.968;5.684;2024-03-06T12:11:48;11.4;68.4
78536;SHT31;67829;51.968;5.684;2024-03-06T12:14:18;11.4;68.1
78536;SHT31;67829;51.968;5.684;2024-03-06T12:16:56;11.4;68.5
78536;SHT31;67829;51.968;5.684;2024-03-06T12:19:25;11.4;68.8
78536;SHT31;67829;51.968;5.684;2024-03-06T12:21:59;11.4;68.8
78536;SHT31;67829;51.968;5.684;2024-03-06T12:24:28;11.4;69.1
78536;SHT31;67829;51.968;5.684;2024-03-06T12:27:03;11.4;70.4
78536;SHT31;67829;51.968;5.684;2024-03-06T12:29:34;11.4;70.7
78536;SHT31;67829;51.968;5.684;2024-03-06T12:32:04;11.5;70.3
78536;SHT31;67829;51.968;5.684;2024-03-06T12:34:32;11.5;68.8
78536;SHT31;67829;51.968;5.684;2024-03-06T12:37:09;11.5;68.9
78536;SHT31;67829;51.968;5.684;2024-03-06T12:39:39;11.6;69.0
78536;SHT31;67829;51.968;5.684;2024-03-06T12:42:07;11.6;68.8
78536;SHT31;67829;51.968;5.684;2024-03-06T12:44:37;11.6;68.6
78536;SHT31;67829;51.968;5.684;2024-03-06T12:47:07;11.6;69.0
78536;SHT31;67829;51.968;5.684;2024-03-06T12:49:35;11.7;69.1
78536;SHT31;67829;51.968;5.684;2024-03-06T12:52:04;11.7;68.9
78536;SHT31;67829;51.968;5.684;2024-03-06T12:54:33;11.8;67.8
78536;SHT31;67829;51.968;5.684;2024-03-06T12:57:01;11.8;67.7
78536;SHT31;67829;51.968;5.684;2024-03-06T12:59:30;11.8;68.7
78536;SHT31;67829;51.968;5.684;2024-03-06T13:01:59;11.9;68.8
78536;SHT31;67829;51.968;5.684;2024-03-06T13:04:27;11.9;67.4
78536;SHT31;67829;51.968;5.684;2024-03-06T13:06:56;12.0;66.5
78536;SHT31;67829;51.968;5.684;2024-03-06T13:09:24;12.0;67.6
78536;SHT31;67829;51.968;5.684;2024-03-06T13:11:53;12.0;66.2
78536;SHT31;67829;51.968;5.684;2024-03-06T13:14:21;12.1;66.6
78536;SHT31;67829;51.968;5.684;2024-03-06T13:16:50;12.1;65.8
78536;SHT31;67829;51.968;5.684;2024-03-06T13:19:18;12.2;64.5
78536;SHT31;67829;51.968;5.684;2024-03-06T13:21:48;12.2;64.9
78536;SHT31;67829;51.968;5.684;2024-03-06T13:24:17;12.3;64.8
78536;SHT31;67829;51.968;5.684;2024-03-06T13:26:46;12.3;65.4
78536;SHT31;67829;51.968;5.684;2024-03-06T13:29:14;12.4;65.9
78536;SHT31;67829;51.968;5.684;2024-03-06T13:31:45;12.4;62.3
78536;SHT31;67829;51.968;5.684;2024-03-06T13:34:14;12.5;61.2
78536;SHT31;67829;51.968;5.684;2024-03-06T13:36:43;12.5;63.1
78536;SHT31;67829;51.968;5.684;2024-03-06T13:39:12;12.6;61.8
78536;SHT31;67829;51.968;5.684;2024-03-06T13:41:41;12.6;62.6
78536;SHT31;67829;51.968;5.684;2024-03-06T13:44:09;12.7;62.0
78536;SHT31;67829;51.968;5.684;2024-03-06T13:46:37;12.7;60.6
78536;SHT31;67829;51.968;5.684;2024-03-06T13:49:06;12.7;59.6
78536;SHT31;67829;51.968;5.684;2024-03-06T13:51:34;12.8;60.6
78536;SHT31;67829;51.968;5.684;2024-03-06T13:54:03;12.8;62.0
78536;SHT31;67829;51.968;5.684;2024-03-06T13:56:32;12.9;61.2
78536;SHT31;67829;51.968;5.684;2024-03-06T13:59:00;12.9;60.9
78536;SHT31;67829;51.968;5.684;2024-03-06T14:01:29;13.0;59.1
78536;SHT31;67829;51.968;5.684;2024-03-06T14:03:57;13.0;59.8
78536;SHT31;67829;51.968;5.684;2024-03-06T14:06:26;13.1;59.0
78536;SHT31;67829;51.968;5.684;2024-03-06T14:08:54;13.1;59.5
78536;SHT31;67829;51.968;5.684;2024-03-06T14:11:23;13.1;58.4
78536;SHT31;67829;51.968;5.684;2024-03-06T14:13:52;13.2;57.5
78536;SHT31;67829;51.968;5.684;2024-03-06T14:16:20;13.2;57.7
78536;SHT31;67829;51.968;5.684;2024-03-06T14:18:50;13.2;57.4
78536;SHT31;67829;51.968;5.684;2024-03-06T14:21:20;13.3;56.5
78536;SHT31;67829;51.968;5.684;2024-03-06T14:23:48;13.3;56.8
78536;SHT31;67829;51.968;5.684;2024-03-06T14:26:17;13.3;55.8
78536;SHT31;67829;51.968;5.684;2024-03-06T14:28:45;13.3;56.6
78536;SHT31;67829;51.968;5.684;2024-03-06T14:31:14;13.3;54.6
78536;SHT31;67829;51.968;5.684;2024-03-06T14:33:43;13.3;55.7
78536;SHT31;67829;51.968;5.684;2024-03-06T14:36:15;13.3;55.9
78536;SHT31;67829;51.968;5.684;2024-03-06T14:38:44;13.3;56.0
78536;SHT31;67829;51.968;5.684;2024-03-06T14:41:13;13.3;57.3
78536;SHT31;67829;51.968;5.684;2024-03-06T14:43:42;13.3;56.7
78536;SHT31;67829;51.968;5.684;2024-03-06T14:46:12;13.3;56.1
78536;SHT31;67829;51.968;5.684;2024-03-06T14:48:40;13.3;56.7
78536;SHT31;67829;51.968;5.684;2024-03-06T14:51:11;13.3;57.1
78536;SHT31;67829;51.968;5.684;2024-03-06T14:53:40;13.3;56.8
78536;SHT31;67829;51.968;5.684;2024-03-06T14:56:09;13.3;57.2
78536;SHT31;67829;51.968;5.684;2024-03-06T14:58:38;13.3;57.8
78536;SHT31;67829;51.968;5.684;2024-03-06T15:01:07;13.3;56.1
78536;SHT31;67829;51.968;5.684;2024-03-06T15:03:35;13.4;56.4
78536;SHT31;67829;51.968;5.684;2024-03-06T15:06:04;13.4;55.7
78536;SHT31;67829;51.968;5.684;2024-03-06T15:08:34;13.4;56.9
78536;SHT31;67829;51.968;5.684;2024-03-06T15:11:03;13.4;56.7
78536;SHT31;67829;51.968;5.684;2024-03-06T15:13:32;13.4;55.8
78536;SHT31;67829;51.968;5.684;2024-03-06T15:16:03;13.4;56.1
78536;SHT31;67829;51.968;5.684;2024-03-06T15:18:32;13.4;55.7
78536;SHT31;67829;51.968;5.684;2024-03-06T15:21:01;13.4;55.5
78536;SHT31;67829;51.968;5.684;2024-03-06T15:23:32;13.4;54.8
78536;SHT31;67829;51.968;5.684;2024-03-06T15:26:01;13.4;54.7
78536;SHT31;67829;51.968;5.684;2024-03-06T15:28:29;13.4;54.4
78536;SHT31;67829;51.968;5.684;2024-03-06T15:30:58;13.4;54.2
78536;SHT31;67829;51.968;5.684;2024-03-06T15:33:30;13.4;54.1
78536;SHT31;67829;51.968;5.684;2024-03-06T15:35:59;13.4;53.6
78536;SHT31;67829;51.968;5.684;2024-03-06T15:38:28;13.4;54.4
78536;SHT31;67829;51.968;5.684;2024-03-06T15:40:57;13.4;53.6
78536;SHT31;67829;51.968;5.684;2024-03-06T15:43:25;13.4;54.4
78536;SHT31;67829;51.968;5.684;2024-03-06T15:45:54;13.4;54.8
78536;SHT31;67829;51.968;5.684;2024-03-06T15:48:26;13.3;55.0
78536;SHT31;67829;51.968;5.684;2024-03-06T15:50:55;13.3;55.0
78536;SHT31;67829;51.968;5.684;2024-03-06T15:53:25;13.3;55.2
78536;SHT31;67829;51.968;5.684;2024-03-06T15:55:56;13.3;55.2
78536;SHT31;67829;51.968;5.684;2024-03-06T15:58:24;13.3;55.6
78536;SHT31;67829;51.968;5.684;2024-03-06T16:00:53;13.3;55.9
78536;SHT31;67829;51.968;5.684;2024-03-06T16:03:22;13.3;55.4
78536;SHT31;67829;51.968;5.684;2024-03-06T16:05:50;13.3;55.2
78536;SHT31;67829;51.968;5.684;2024-03-06T16:08:19;13.3;55.2
78536;SHT31;67829;51.968;5.684;2024-03-06T16:10:52;13.3;55.3
78536;SHT31;67829;51.968;5.684;2024-03-06T16:13:21;13.3;54.9
78536;SHT31;67829;51.968;5.684;2024-03-06T16:15:49;13.3;55.2
78536;SHT31;67829;51.968;5.684;2024-03-06T16:18:18;13.3;55.3
78536;SHT31;67829;51.968;5.684;2024-03-06T16:20:47;13.2;55.0
78536;SHT31;67829;51.968;5.684;2024-03-06T16:23:15;13.2;55.2
78536;SHT31;67829;51.968;5.684;2024-03-06T16:25:44;13.2;55.6
78536;SHT31;67829;51.968;5.684;2024-03-06T16:28:13;13.2;55.8